sensor_id;sensor_type;location;lat;lon;timestamp;P1;durP1;ratioP1;P2;durP2;ratioP2
39094;SDS011;24840;47.508;19.376;2023-06-26T00:00:41;5.60;;;2.53;;
39094;SDS011;24840;47.508;19.376;2023-06-26T00:03:07;5.28;;;2.80;;
39094;SDS011;24840;47.508;19.376;2023-06-26T00:05:33;4.00;;;3.05;;
39094;SDS011;24840;47.508;19.376;2023-06-26T00:07:59;6.00;;;2.38;;
39094;SDS011;24840;47.508;19.376;2023-06-26T00:10:28;4.40;;;2.65;;
39094;SDS011;24840;47.508;19.376;2023-06-26T00:12:54;6.38;;;3.38;;
39094;SDS011;24840;47.508;19.376;2023-06-26T00:15:20;6.97;;;2.65;;
39094;SDS011;24840;47.508;19.376;2023-06-26T00:17:45;2.67;;;2.47;;
39094;SDS011;24840;47.508;19.376;2023-06-26T00:20:11;7.55;;;2.72;;
39094;SDS011;24840;47.508;19.376;2023-06-26T00:22:37;8.05;;;2.95;;
39094;SDS011;24840;47.508;19.376;2023-06-26T00:25:06;5.13;;;3.13;;
39094;SDS011;24840;47.508;19.376;2023-06-26T00:27:32;5.65;;;3.13;;
39094;SDS011;24840;47.508;19.376;2023-06-26T00:29:58;4.97;;;2.95;;
39094;SDS011;24840;47.508;19.376;2023-06-26T00:32:24;9.07;;;3.60;;
39094;SDS011;24840;47.508;19.376;2023-06-26T00:34:49;4.47;;;2.70;;
39094;SDS011;24840;47.508;19.376;2023-06-26T00:37:15;7.45;;;2.90;;
39094;SDS011;24840;47.508;19.376;2023-06-26T00:39:41;3.92;;;2.65;;
39094;SDS011;24840;47.508;19.376;2023-06-26T00:42:07;4.47;;;2.70;;
39094;SDS011;24840;47.508;19.376;2023-06-26T00:44:32;5.95;;;2.95;;
39094;SDS011;24840;47.508;19.376;2023-06-26T00:46:59;5.55;;;2.92;;
39094;SDS011;24840;47.508;19.376;2023-06-26T00:49:24;5.50;;;3.50;;
39094;SDS011;24840;47.508;19.376;2023-06-26T00:51:51;3.83;;;2.60;;
39094;SDS011;24840;47.508;19.376;2023-06-26T00:54:18;3.00;;;2.28;;
39094;SDS011;24840;47.508;19.376;2023-06-26T00:56:45;7.30;;;3.25;;
39094;SDS011;24840;47.508;19.376;2023-06-26T00:59:12;2.67;;;2.22;;
39094;SDS011;24840;47.508;19.376;2023-06-26T01:01:38;6.65;;;2.47;;
39094;SDS011;24840;47.508;19.376;2023-06-26T01:04:04;4.95;;;2.50;;
39094;SDS011;24840;47.508;19.376;2023-06-26T01:06:30;3.38;;;2.95;;
39094;SDS011;24840;47.508;19.376;2023-06-26T01:09:00;6.30;;;3.95;;
39094;SDS011;24840;47.508;19.376;2023-06-26T01:11:26;4.65;;;2.58;;
39094;SDS011;24840;47.508;19.376;2023-06-26T01:13:52;4.05;;;2.90;;
39094;SDS011;24840;47.508;19.376;2023-06-26T01:16:20;3.67;;;3.10;;
39094;SDS011;24840;47.508;19.376;2023-06-26T01:18:48;4.40;;;2.92;;
39094;SDS011;24840;47.508;19.376;2023-06-26T01:21:15;6.03;;;3.50;;
39094;SDS011;24840;47.508;19.376;2023-06-26T01:26:31;5.57;;;3.40;;
39094;SDS011;24840;47.508;19.376;2023-06-26T01:29:00;6.45;;;3.50;;
39094;SDS011;24840;47.508;19.376;2023-06-26T01:31:28;4.45;;;3.00;;
39094;SDS011;24840;47.508;19.376;2023-06-26T01:33:56;5.00;;;3.20;;
39094;SDS011;24840;47.508;19.376;2023-06-26T01:36:24;5.50;;;3.33;;
39094;SDS011;24840;47.508;19.376;2023-06-26T01:38:50;3.22;;;2.78;;
39094;SDS011;24840;47.508;19.376;2023-06-26T01:41:16;4.93;;;3.22;;
39094;SDS011;24840;47.508;19.376;2023-06-26T01:46:34;7.60;;;3.15;;
39094;SDS011;24840;47.508;19.376;2023-06-26T01:52:07;5.10;;;3.45;;
39094;SDS011;24840;47.508;19.376;2023-06-26T01:57:55;4.60;;;2.80;;
39094;SDS011;24840;47.508;19.376;2023-06-26T02:00:22;3.70;;;3.00;;
39094;SDS011;24840;47.508;19.376;2023-06-26T02:02:49;5.13;;;3.20;;
39094;SDS011;24840;47.508;19.376;2023-06-26T02:05:15;10.18;;;3.63;;
39094;SDS011;24840;47.508;19.376;2023-06-26T02:07:41;3.65;;;2.28;;
39094;SDS011;24840;47.508;19.376;2023-06-26T02:10:07;6.30;;;3.42;;
39094;SDS011;24840;47.508;19.376;2023-06-26T02:12:34;6.78;;;3.20;;
39094;SDS011;24840;47.508;19.376;2023-06-26T02:15:02;3.67;;;3.10;;
39094;SDS011;24840;47.508;19.376;2023-06-26T02:17:28;4.90;;;3.05;;
39094;SDS011;24840;47.508;19.376;2023-06-26T02:19:53;9.40;;;2.72;;
39094;SDS011;24840;47.508;19.376;2023-06-26T02:22:19;4.82;;;3.45;;
39094;SDS011;24840;47.508;19.376;2023-06-26T02:24:45;9.05;;;3.85;;
39094;SDS011;24840;47.508;19.376;2023-06-26T02:27:11;4.25;;;3.28;;
39094;SDS011;24840;47.508;19.376;2023-06-26T02:29:37;5.00;;;3.30;;
39094;SDS011;24840;47.508;19.376;2023-06-26T02:32:03;3.42;;;2.65;;
39094;SDS011;24840;47.508;19.376;2023-06-26T02:34:29;5.47;;;3.00;;
39094;SDS011;24840;47.508;19.376;2023-06-26T02:36:55;6.55;;;2.90;;
39094;SDS011;24840;47.508;19.376;2023-06-26T02:39:21;5.75;;;3.28;;
39094;SDS011;24840;47.508;19.376;2023-06-26T02:41:47;5.22;;;3.38;;
39094;SDS011;24840;47.508;19.376;2023-06-26T02:44:13;4.05;;;2.55;;
39094;SDS011;24840;47.508;19.376;2023-06-26T02:46:39;5.10;;;3.20;;
39094;SDS011;24840;47.508;19.376;2023-06-26T02:49:05;3.60;;;3.05;;
39094;SDS011;24840;47.508;19.376;2023-06-26T02:51:32;7.85;;;3.22;;
39094;SDS011;24840;47.508;19.376;2023-06-26T02:53:58;3.22;;;2.90;;
39094;SDS011;24840;47.508;19.376;2023-06-26T02:56:24;5.13;;;2.95;;
39094;SDS011;24840;47.508;19.376;2023-06-26T02:58:54;5.60;;;2.83;;
39094;SDS011;24840;47.508;19.376;2023-06-26T03:01:23;4.82;;;3.17;;
39094;SDS011;24840;47.508;19.376;2023-06-26T03:03:49;6.05;;;3.00;;
39094;SDS011;24840;47.508;19.376;2023-06-26T03:06:15;5.13;;;2.80;;
39094;SDS011;24840;47.508;19.376;2023-06-26T03:08:41;3.13;;;2.55;;
39094;SDS011;24840;47.508;19.376;2023-06-26T03:11:07;5.53;;;3.00;;
39094;SDS011;24840;47.508;19.376;2023-06-26T03:13:36;3.50;;;3.08;;
39094;SDS011;24840;47.508;19.376;2023-06-26T03:16:03;9.45;;;3.90;;
39094;SDS011;24840;47.508;19.376;2023-06-26T03:18:29;5.63;;;4.05;;
39094;SDS011;24840;47.508;19.376;2023-06-26T03:20:55;3.53;;;3.08;;
39094;SDS011;24840;47.508;19.376;2023-06-26T03:23:22;4.10;;;3.33;;
39094;SDS011;24840;47.508;19.376;2023-06-26T03:25:48;7.57;;;3.03;;
39094;SDS011;24840;47.508;19.376;2023-06-26T03:28:14;6.45;;;3.45;;
39094;SDS011;24840;47.508;19.376;2023-06-26T03:30:40;8.80;;;3.42;;
39094;SDS011;24840;47.508;19.376;2023-06-26T03:33:06;7.43;;;3.42;;
39094;SDS011;24840;47.508;19.376;2023-06-26T03:35:32;6.22;;;2.75;;
39094;SDS011;24840;47.508;19.376;2023-06-26T03:37:58;3.58;;;2.88;;
39094;SDS011;24840;47.508;19.376;2023-06-26T03:40:25;3.10;;;2.80;;
39094;SDS011;24840;47.508;19.376;2023-06-26T03:42:51;6.55;;;4.03;;
39094;SDS011;24840;47.508;19.376;2023-06-26T03:45:17;3.65;;;3.10;;
39094;SDS011;24840;47.508;19.376;2023-06-26T03:47:44;4.70;;;3.70;;
39094;SDS011;24840;47.508;19.376;2023-06-26T03:50:13;8.27;;;3.92;;
39094;SDS011;24840;47.508;19.376;2023-06-26T03:52:39;6.00;;;4.22;;
39094;SDS011;24840;47.508;19.376;2023-06-26T03:55:05;5.97;;;3.50;;
39094;SDS011;24840;47.508;19.376;2023-06-26T03:57:31;9.95;;;4.57;;
39094;SDS011;24840;47.508;19.376;2023-06-26T03:59:57;5.70;;;3.67;;
39094;SDS011;24840;47.508;19.376;2023-06-26T04:02:22;6.75;;;3.55;;
39094;SDS011;24840;47.508;19.376;2023-06-26T04:04:48;4.72;;;4.07;;
39094;SDS011;24840;47.508;19.376;2023-06-26T04:07:14;7.88;;;4.05;;
39094;SDS011;24840;47.508;19.376;2023-06-26T04:09:39;6.43;;;4.18;;
39094;SDS011;24840;47.508;19.376;2023-06-26T04:12:05;7.32;;;4.22;;
39094;SDS011;24840;47.508;19.376;2023-06-26T04:14:31;5.88;;;4.32;;
39094;SDS011;24840;47.508;19.376;2023-06-26T04:16:57;4.55;;;3.45;;
39094;SDS011;24840;47.508;19.376;2023-06-26T04:19:23;7.35;;;4.43;;
39094;SDS011;24840;47.508;19.376;2023-06-26T04:21:49;6.45;;;3.58;;
39094;SDS011;24840;47.508;19.376;2023-06-26T04:24:15;12.82;;;4.32;;
39094;SDS011;24840;47.508;19.376;2023-06-26T04:26:40;6.80;;;4.82;;
39094;SDS011;24840;47.508;19.376;2023-06-26T04:29:06;5.40;;;3.78;;
39094;SDS011;24840;47.508;19.376;2023-06-26T04:31:32;5.18;;;4.60;;
39094;SDS011;24840;47.508;19.376;2023-06-26T04:33:58;5.43;;;3.92;;
39094;SDS011;24840;47.508;19.376;2023-06-26T04:36:25;9.02;;;4.18;;
39094;SDS011;24840;47.508;19.376;2023-06-26T04:38:54;4.75;;;4.15;;
39094;SDS011;24840;47.508;19.376;2023-06-26T04:41:20;7.03;;;4.10;;
39094;SDS011;24840;47.508;19.376;2023-06-26T04:43:46;7.90;;;3.90;;
39094;SDS011;24840;47.508;19.376;2023-06-26T04:46:12;4.32;;;3.92;;
39094;SDS011;24840;47.508;19.376;2023-06-26T04:48:37;6.07;;;4.53;;
39094;SDS011;24840;47.508;19.376;2023-06-26T04:51:03;5.10;;;4.60;;
39094;SDS011;24840;47.508;19.376;2023-06-26T04:53:29;6.03;;;4.18;;
39094;SDS011;24840;47.508;19.376;2023-06-26T04:55:55;4.70;;;4.03;;
39094;SDS011;24840;47.508;19.376;2023-06-26T04:58:21;6.43;;;4.32;;
39094;SDS011;24840;47.508;19.376;2023-06-26T05:00:46;7.88;;;5.03;;
39094;SDS011;24840;47.508;19.376;2023-06-26T05:03:13;5.65;;;4.28;;
39094;SDS011;24840;47.508;19.376;2023-06-26T05:05:40;4.03;;;3.63;;
39094;SDS011;24840;47.508;19.376;2023-06-26T05:10:47;6.00;;;4.38;;
39094;SDS011;24840;47.508;19.376;2023-06-26T05:13:13;4.63;;;3.58;;
39094;SDS011;24840;47.508;19.376;2023-06-26T05:15:42;8.35;;;4.93;;
39094;SDS011;24840;47.508;19.376;2023-06-26T05:18:08;6.78;;;4.40;;
39094;SDS011;24840;47.508;19.376;2023-06-26T05:20:35;8.35;;;5.20;;
39094;SDS011;24840;47.508;19.376;2023-06-26T05:23:04;6.32;;;4.38;;
39094;SDS011;24840;47.508;19.376;2023-06-26T05:25:30;9.05;;;6.22;;
39094;SDS011;24840;47.508;19.376;2023-06-26T05:27:58;6.32;;;5.40;;
39094;SDS011;24840;47.508;19.376;2023-06-26T05:30:25;7.85;;;5.78;;
39094;SDS011;24840;47.508;19.376;2023-06-26T05:32:52;7.03;;;6.03;;
39094;SDS011;24840;47.508;19.376;2023-06-26T05:35:22;8.05;;;5.65;;
39094;SDS011;24840;47.508;19.376;2023-06-26T05:37:48;8.30;;;5.85;;
39094;SDS011;24840;47.508;19.376;2023-06-26T05:40:16;8.18;;;5.90;;
39094;SDS011;24840;47.508;19.376;2023-06-26T05:42:42;6.68;;;5.88;;
39094;SDS011;24840;47.508;19.376;2023-06-26T05:45:09;10.63;;;5.72;;
39094;SDS011;24840;47.508;19.376;2023-06-26T05:47:35;7.03;;;5.70;;
39094;SDS011;24840;47.508;19.376;2023-06-26T05:50:01;6.95;;;6.20;;
39094;SDS011;24840;47.508;19.376;2023-06-26T05:52:28;8.15;;;7.25;;
39094;SDS011;24840;47.508;19.376;2023-06-26T05:54:55;8.35;;;6.47;;
39094;SDS011;24840;47.508;19.376;2023-06-26T05:57:24;8.05;;;7.25;;
39094;SDS011;24840;47.508;19.376;2023-06-26T05:59:54;7.65;;;6.43;;
39094;SDS011;24840;47.508;19.376;2023-06-26T06:02:20;11.45;;;6.80;;
39094;SDS011;24840;47.508;19.376;2023-06-26T06:04:46;8.27;;;6.88;;
39094;SDS011;24840;47.508;19.376;2023-06-26T06:07:12;8.52;;;6.80;;
39094;SDS011;24840;47.508;19.376;2023-06-26T06:09:38;11.68;;;6.38;;
39094;SDS011;24840;47.508;19.376;2023-06-26T06:12:07;9.98;;;6.63;;
39094;SDS011;24840;47.508;19.376;2023-06-26T06:14:33;6.47;;;5.38;;
39094;SDS011;24840;47.508;19.376;2023-06-26T06:17:00;8.85;;;5.88;;
39094;SDS011;24840;47.508;19.376;2023-06-26T06:19:26;11.70;;;6.18;;
39094;SDS011;24840;47.508;19.376;2023-06-26T06:21:52;11.95;;;6.65;;
39094;SDS011;24840;47.508;19.376;2023-06-26T06:24:18;8.43;;;6.68;;
39094;SDS011;24840;47.508;19.376;2023-06-26T06:26:43;9.15;;;6.47;;
39094;SDS011;24840;47.508;19.376;2023-06-26T06:29:09;10.48;;;7.28;;
39094;SDS011;24840;47.508;19.376;2023-06-26T06:31:35;7.05;;;6.35;;
39094;SDS011;24840;47.508;19.376;2023-06-26T06:34:01;10.70;;;7.15;;
39094;SDS011;24840;47.508;19.376;2023-06-26T06:36:27;6.40;;;5.75;;
39094;SDS011;24840;47.508;19.376;2023-06-26T06:38:53;7.75;;;6.72;;
39094;SDS011;24840;47.508;19.376;2023-06-26T06:41:20;6.82;;;5.82;;
39094;SDS011;24840;47.508;19.376;2023-06-26T06:43:46;6.53;;;5.38;;
39094;SDS011;24840;47.508;19.376;2023-06-26T06:46:11;7.28;;;5.82;;
39094;SDS011;24840;47.508;19.376;2023-06-26T06:48:37;7.70;;;6.35;;
39094;SDS011;24840;47.508;19.376;2023-06-26T06:51:03;9.07;;;6.22;;
39094;SDS011;24840;47.508;19.376;2023-06-26T06:53:29;7.25;;;5.82;;
39094;SDS011;24840;47.508;19.376;2023-06-26T06:55:55;6.63;;;5.97;;
39094;SDS011;24840;47.508;19.376;2023-06-26T06:58:21;11.35;;;6.88;;
39094;SDS011;24840;47.508;19.376;2023-06-26T07:00:48;8.18;;;6.15;;
39094;SDS011;24840;47.508;19.376;2023-06-26T07:03:14;11.65;;;6.68;;
39094;SDS011;24840;47.508;19.376;2023-06-26T07:05:43;6.85;;;6.18;;
39094;SDS011;24840;47.508;19.376;2023-06-26T07:08:09;22.15;;;6.93;;
39094;SDS011;24840;47.508;19.376;2023-06-26T07:10:35;8.77;;;6.38;;
39094;SDS011;24840;47.508;19.376;2023-06-26T07:13:00;9.60;;;6.82;;
39094;SDS011;24840;47.508;19.376;2023-06-26T07:15:27;8.63;;;6.47;;
39094;SDS011;24840;47.508;19.376;2023-06-26T07:17:52;6.80;;;6.07;;
39094;SDS011;24840;47.508;19.376;2023-06-26T07:20:18;8.90;;;6.35;;
39094;SDS011;24840;47.508;19.376;2023-06-26T07:22:44;11.15;;;5.95;;
39094;SDS011;24840;47.508;19.376;2023-06-26T07:25:10;7.70;;;6.90;;
39094;SDS011;24840;47.508;19.376;2023-06-26T07:27:39;7.32;;;6.63;;
39094;SDS011;24840;47.508;19.376;2023-06-26T07:30:06;8.20;;;5.88;;
39094;SDS011;24840;47.508;19.376;2023-06-26T07:32:35;7.43;;;6.05;;
39094;SDS011;24840;47.508;19.376;2023-06-26T07:35:02;10.18;;;6.97;;
39094;SDS011;24840;47.508;19.376;2023-06-26T07:37:28;9.18;;;7.07;;
39094;SDS011;24840;47.508;19.376;2023-06-26T07:39:54;8.68;;;6.35;;
39094;SDS011;24840;47.508;19.376;2023-06-26T07:42:19;8.45;;;5.93;;
39094;SDS011;24840;47.508;19.376;2023-06-26T07:44:45;6.15;;;5.63;;
39094;SDS011;24840;47.508;19.376;2023-06-26T07:47:11;7.80;;;6.22;;
39094;SDS011;24840;47.508;19.376;2023-06-26T07:49:36;7.63;;;6.22;;
39094;SDS011;24840;47.508;19.376;2023-06-26T07:52:04;9.43;;;6.40;;
39094;SDS011;24840;47.508;19.376;2023-06-26T07:54:30;7.05;;;6.38;;
39094;SDS011;24840;47.508;19.376;2023-06-26T07:56:57;6.47;;;5.78;;
39094;SDS011;24840;47.508;19.376;2023-06-26T07:59:23;6.13;;;5.55;;
39094;SDS011;24840;47.508;19.376;2023-06-26T08:01:50;9.18;;;5.78;;
39094;SDS011;24840;47.508;19.376;2023-06-26T08:04:17;6.20;;;5.00;;
39094;SDS011;24840;47.508;19.376;2023-06-26T08:06:45;9.20;;;6.63;;
39094;SDS011;24840;47.508;19.376;2023-06-26T08:09:12;5.72;;;5.05;;
39094;SDS011;24840;47.508;19.376;2023-06-26T08:11:38;8.68;;;6.03;;
39094;SDS011;24840;47.508;19.376;2023-06-26T08:14:04;10.13;;;6.78;;
39094;SDS011;24840;47.508;19.376;2023-06-26T08:16:29;7.45;;;6.13;;
39094;SDS011;24840;47.508;19.376;2023-06-26T08:18:55;10.80;;;5.95;;
39094;SDS011;24840;47.508;19.376;2023-06-26T08:21:21;6.25;;;5.65;;
39094;SDS011;24840;47.508;19.376;2023-06-26T08:23:47;8.50;;;6.45;;
39094;SDS011;24840;47.508;19.376;2023-06-26T08:26:13;6.95;;;6.25;;
39094;SDS011;24840;47.508;19.376;2023-06-26T08:28:39;6.82;;;5.97;;
39094;SDS011;24840;47.508;19.376;2023-06-26T08:31:04;6.90;;;6.18;;
39094;SDS011;24840;47.508;19.376;2023-06-26T08:33:30;7.10;;;6.35;;
39094;SDS011;24840;47.508;19.376;2023-06-26T08:35:56;6.93;;;6.22;;
39094;SDS011;24840;47.508;19.376;2023-06-26T08:38:21;6.78;;;6.00;;
39094;SDS011;24840;47.508;19.376;2023-06-26T08:40:47;6.82;;;6.05;;
39094;SDS011;24840;47.508;19.376;2023-06-26T08:43:13;7.85;;;6.20;;
39094;SDS011;24840;47.508;19.376;2023-06-26T08:45:39;6.78;;;5.97;;
39094;SDS011;24840;47.508;19.376;2023-06-26T08:48:07;7.30;;;6.60;;
39094;SDS011;24840;47.508;19.376;2023-06-26T08:50:33;7.05;;;6.38;;
39094;SDS011;24840;47.508;19.376;2023-06-26T08:53:13;9.73;;;6.32;;
39094;SDS011;24840;47.508;19.376;2023-06-26T08:55:43;6.75;;;6.15;;
39094;SDS011;24840;47.508;19.376;2023-06-26T08:58:09;7.20;;;6.57;;
39094;SDS011;24840;47.508;19.376;2023-06-26T09:00:37;7.00;;;6.40;;
39094;SDS011;24840;47.508;19.376;2023-06-26T09:03:04;6.55;;;5.95;;
39094;SDS011;24840;47.508;19.376;2023-06-26T09:05:30;8.55;;;6.65;;
39094;SDS011;24840;47.508;19.376;2023-06-26T09:07:58;6.93;;;6.18;;
39094;SDS011;24840;47.508;19.376;2023-06-26T09:10:24;6.97;;;6.15;;
39094;SDS011;24840;47.508;19.376;2023-06-26T09:12:50;6.65;;;5.72;;
39094;SDS011;24840;47.508;19.376;2023-06-26T09:15:19;7.07;;;6.40;;
39094;SDS011;24840;47.508;19.376;2023-06-26T09:17:45;7.13;;;6.53;;
39094;SDS011;24840;47.508;19.376;2023-06-26T09:20:11;7.85;;;6.60;;
39094;SDS011;24840;47.508;19.376;2023-06-26T09:22:40;7.88;;;6.15;;
39094;SDS011;24840;47.508;19.376;2023-06-26T09:25:08;10.10;;;6.47;;
39094;SDS011;24840;47.508;19.376;2023-06-26T09:27:35;8.48;;;6.80;;
39094;SDS011;24840;47.508;19.376;2023-06-26T09:30:04;8.32;;;6.53;;
39094;SDS011;24840;47.508;19.376;2023-06-26T09:32:37;10.50;;;6.72;;
39094;SDS011;24840;47.508;19.376;2023-06-26T09:35:03;7.07;;;6.38;;
39094;SDS011;24840;47.508;19.376;2023-06-26T09:37:29;7.97;;;6.32;;
39094;SDS011;24840;47.508;19.376;2023-06-26T09:39:55;6.60;;;5.97;;
39094;SDS011;24840;47.508;19.376;2023-06-26T09:42:21;9.40;;;6.30;;
39094;SDS011;24840;47.508;19.376;2023-06-26T09:44:48;7.18;;;6.15;;
39094;SDS011;24840;47.508;19.376;2023-06-26T09:47:18;6.05;;;5.45;;
39094;SDS011;24840;47.508;19.376;2023-06-26T09:49:44;7.32;;;6.72;;
39094;SDS011;24840;47.508;19.376;2023-06-26T09:52:17;6.22;;;5.63;;
39094;SDS011;24840;47.508;19.376;2023-06-26T09:54:43;6.45;;;5.95;;
39094;SDS011;24840;47.508;19.376;2023-06-26T09:57:10;8.13;;;7.15;;
39094;SDS011;24840;47.508;19.376;2023-06-26T09:59:44;6.82;;;6.25;;
39094;SDS011;24840;47.508;19.376;2023-06-26T10:02:10;10.70;;;7.30;;
39094;SDS011;24840;47.508;19.376;2023-06-26T10:04:36;7.18;;;6.32;;
39094;SDS011;24840;47.508;19.376;2023-06-26T10:07:06;6.55;;;6.05;;
39094;SDS011;24840;47.508;19.376;2023-06-26T10:09:40;7.00;;;6.20;;
39094;SDS011;24840;47.508;19.376;2023-06-26T10:12:16;7.35;;;6.60;;
39094;SDS011;24840;47.508;19.376;2023-06-26T10:14:45;8.80;;;7.03;;
39094;SDS011;24840;47.508;19.376;2023-06-26T10:17:13;6.20;;;5.60;;
39094;SDS011;24840;47.508;19.376;2023-06-26T10:19:46;6.47;;;5.88;;
39094;SDS011;24840;47.508;19.376;2023-06-26T10:22:17;15.10;;;10.45;;
39094;SDS011;24840;47.508;19.376;2023-06-26T10:24:45;6.28;;;5.78;;
39094;SDS011;24840;47.508;19.376;2023-06-26T10:27:20;6.40;;;5.65;;
39094;SDS011;24840;47.508;19.376;2023-06-26T10:29:57;6.43;;;5.93;;
39094;SDS011;24840;47.508;19.376;2023-06-26T10:32:27;6.57;;;5.97;;
39094;SDS011;24840;47.508;19.376;2023-06-26T10:34:55;7.05;;;6.35;;
39094;SDS011;24840;47.508;19.376;2023-06-26T10:37:21;6.95;;;6.10;;
39094;SDS011;24840;47.508;19.376;2023-06-26T10:40:14;7.03;;;6.20;;
39094;SDS011;24840;47.508;19.376;2023-06-26T10:42:46;7.13;;;5.97;;
39094;SDS011;24840;47.508;19.376;2023-06-26T10:45:15;7.50;;;6.90;;
39094;SDS011;24840;47.508;19.376;2023-06-26T10:47:45;8.13;;;6.32;;
39094;SDS011;24840;47.508;19.376;2023-06-26T10:50:16;6.70;;;5.95;;
39094;SDS011;24840;47.508;19.376;2023-06-26T10:53:13;10.27;;;5.72;;
39094;SDS011;24840;47.508;19.376;2023-06-26T10:55:50;7.68;;;6.05;;
39094;SDS011;24840;47.508;19.376;2023-06-26T10:58:32;7.40;;;6.22;;
39094;SDS011;24840;47.508;19.376;2023-06-26T11:03:46;6.28;;;5.68;;
39094;SDS011;24840;47.508;19.376;2023-06-26T11:06:28;8.25;;;6.78;;
39094;SDS011;24840;47.508;19.376;2023-06-26T11:14:23;6.68;;;6.00;;
39094;SDS011;24840;47.508;19.376;2023-06-26T11:16:50;7.68;;;6.80;;
39094;SDS011;24840;47.508;19.376;2023-06-26T11:19:16;5.80;;;5.30;;
39094;SDS011;24840;47.508;19.376;2023-06-26T11:21:43;12.32;;;5.78;;
39094;SDS011;24840;47.508;19.376;2023-06-26T11:24:09;6.80;;;6.25;;
39094;SDS011;24840;47.508;19.376;2023-06-26T11:26:40;8.27;;;6.13;;
39094;SDS011;24840;47.508;19.376;2023-06-26T11:29:07;6.37;;;5.77;;
39094;SDS011;24840;47.508;19.376;2023-06-26T11:31:34;6.53;;;5.93;;
39094;SDS011;24840;47.508;19.376;2023-06-26T11:34:02;7.10;;;6.50;;
39094;SDS011;24840;47.508;19.376;2023-06-26T11:36:41;6.30;;;5.78;;
39094;SDS011;24840;47.508;19.376;2023-06-26T11:39:07;6.93;;;6.32;;
39094;SDS011;24840;47.508;19.376;2023-06-26T11:41:37;8.02;;;7.22;;
39094;SDS011;24840;47.508;19.376;2023-06-26T11:44:04;6.97;;;5.20;;
39094;SDS011;24840;47.508;19.376;2023-06-26T11:46:31;10.23;;;6.78;;
39094;SDS011;24840;47.508;19.376;2023-06-26T11:48:58;7.25;;;6.25;;
39094;SDS011;24840;47.508;19.376;2023-06-26T11:51:26;7.38;;;6.15;;
39094;SDS011;24840;47.508;19.376;2023-06-26T11:53:53;7.03;;;6.30;;
39094;SDS011;24840;47.508;19.376;2023-06-26T11:56:19;6.32;;;5.78;;
39094;SDS011;24840;47.508;19.376;2023-06-26T11:58:56;9.07;;;5.93;;
39094;SDS011;24840;47.508;19.376;2023-06-26T12:01:39;7.07;;;6.50;;
39094;SDS011;24840;47.508;19.376;2023-06-26T12:04:12;7.38;;;5.95;;
39094;SDS011;24840;47.508;19.376;2023-06-26T12:06:45;7.30;;;6.70;;
39094;SDS011;24840;47.508;19.376;2023-06-26T12:09:13;8.05;;;6.05;;
39094;SDS011;24840;47.508;19.376;2023-06-26T12:11:43;6.63;;;6.00;;
39094;SDS011;24840;47.508;19.376;2023-06-26T12:14:09;6.82;;;5.80;;
39094;SDS011;24840;47.508;19.376;2023-06-26T12:16:36;7.47;;;6.53;;
39094;SDS011;24840;47.508;19.376;2023-06-26T12:19:06;10.90;;;6.77;;
39094;SDS011;24840;47.508;19.376;2023-06-26T12:23:59;7.40;;;6.70;;
39094;SDS011;24840;47.508;19.376;2023-06-26T12:26:26;6.63;;;5.70;;
39094;SDS011;24840;47.508;19.376;2023-06-26T12:28:53;6.00;;;5.53;;
39094;SDS011;24840;47.508;19.376;2023-06-26T12:31:20;7.97;;;5.63;;
39094;SDS011;24840;47.508;19.376;2023-06-26T12:33:47;6.18;;;5.63;;
39094;SDS011;24840;47.508;19.376;2023-06-26T12:36:13;8.90;;;5.95;;
39094;SDS011;24840;47.508;19.376;2023-06-26T12:38:45;6.60;;;6.00;;
39094;SDS011;24840;47.508;19.376;2023-06-26T12:41:12;6.72;;;6.05;;
39094;SDS011;24840;47.508;19.376;2023-06-26T12:43:41;7.47;;;6.78;;
39094;SDS011;24840;47.508;19.376;2023-06-26T12:46:07;6.65;;;6.05;;
39094;SDS011;24840;47.508;19.376;2023-06-26T12:48:40;6.32;;;5.72;;
39094;SDS011;24840;47.508;19.376;2023-06-26T12:51:11;7.18;;;6.47;;
39094;SDS011;24840;47.508;19.376;2023-06-26T12:53:41;6.75;;;6.07;;
39094;SDS011;24840;47.508;19.376;2023-06-26T12:56:08;6.78;;;6.28;;
39094;SDS011;24840;47.508;19.376;2023-06-26T12:58:34;6.75;;;6.15;;
39094;SDS011;24840;47.508;19.376;2023-06-26T13:01:04;6.75;;;6.15;;
39094;SDS011;24840;47.508;19.376;2023-06-26T13:03:32;6.22;;;5.63;;
39094;SDS011;24840;47.508;19.376;2023-06-26T13:05:58;6.70;;;6.20;;
39094;SDS011;24840;47.508;19.376;2023-06-26T13:08:24;7.78;;;6.05;;
39094;SDS011;24840;47.508;19.376;2023-06-26T13:10:49;5.82;;;5.32;;
39094;SDS011;24840;47.508;19.376;2023-06-26T13:13:16;9.43;;;5.35;;
39094;SDS011;24840;47.508;19.376;2023-06-26T13:15:42;5.80;;;5.20;;
39094;SDS011;24840;47.508;19.376;2023-06-26T13:18:07;5.90;;;5.40;;
39094;SDS011;24840;47.508;19.376;2023-06-26T13:20:33;5.88;;;5.38;;
39094;SDS011;24840;47.508;19.376;2023-06-26T13:22:59;5.93;;;5.43;;
39094;SDS011;24840;47.508;19.376;2023-06-26T13:25:24;6.53;;;6.03;;
39094;SDS011;24840;47.508;19.376;2023-06-26T13:27:50;6.75;;;6.15;;
39094;SDS011;24840;47.508;19.376;2023-06-26T13:30:16;6.85;;;6.25;;
39094;SDS011;24840;47.508;19.376;2023-06-26T13:32:42;7.22;;;5.47;;
39094;SDS011;24840;47.508;19.376;2023-06-26T13:35:08;6.57;;;5.97;;
39094;SDS011;24840;47.508;19.376;2023-06-26T13:37:34;6.60;;;6.03;;
39094;SDS011;24840;47.508;19.376;2023-06-26T13:40:02;7.15;;;5.90;;
39094;SDS011;24840;47.508;19.376;2023-06-26T13:42:28;6.00;;;5.50;;
39094;SDS011;24840;47.508;19.376;2023-06-26T13:44:54;6.38;;;5.88;;
39094;SDS011;24840;47.508;19.376;2023-06-26T13:47:20;7.40;;;6.47;;
39094;SDS011;24840;47.508;19.376;2023-06-26T13:49:46;6.03;;;5.43;;
39094;SDS011;24840;47.508;19.376;2023-06-26T13:52:12;6.22;;;5.72;;
39094;SDS011;24840;47.508;19.376;2023-06-26T13:54:37;6.50;;;6.00;;
39094;SDS011;24840;47.508;19.376;2023-06-26T13:57:05;7.03;;;5.60;;
39094;SDS011;24840;47.508;19.376;2023-06-26T13:59:32;6.10;;;5.68;;
39094;SDS011;24840;47.508;19.376;2023-06-26T14:01:58;6.20;;;5.78;;
39094;SDS011;24840;47.508;19.376;2023-06-26T14:04:24;6.47;;;5.75;;
39094;SDS011;24840;47.508;19.376;2023-06-26T14:06:50;7.82;;;7.13;;
39094;SDS011;24840;47.508;19.376;2023-06-26T14:09:16;6.72;;;5.60;;
39094;SDS011;24840;47.508;19.376;2023-06-26T14:11:43;7.85;;;6.45;;
39094;SDS011;24840;47.508;19.376;2023-06-26T14:14:09;9.50;;;6.35;;
39094;SDS011;24840;47.508;19.376;2023-06-26T14:16:34;6.30;;;5.60;;
39094;SDS011;24840;47.508;19.376;2023-06-26T14:19:00;6.15;;;5.63;;
39094;SDS011;24840;47.508;19.376;2023-06-26T14:21:27;6.30;;;5.80;;
39094;SDS011;24840;47.508;19.376;2023-06-26T14:23:53;6.00;;;5.50;;
39094;SDS011;24840;47.508;19.376;2023-06-26T14:26:19;6.07;;;5.47;;
39094;SDS011;24840;47.508;19.376;2023-06-26T14:28:45;7.03;;;6.32;;
39094;SDS011;24840;47.508;19.376;2023-06-26T14:31:11;6.35;;;5.85;;
39094;SDS011;24840;47.508;19.376;2023-06-26T14:33:37;6.80;;;6.25;;
39094;SDS011;24840;47.508;19.376;2023-06-26T14:36:03;6.93;;;6.25;;
39094;SDS011;24840;47.508;19.376;2023-06-26T14:38:29;8.13;;;6.20;;
39094;SDS011;24840;47.508;19.376;2023-06-26T14:40:54;6.53;;;5.20;;
39094;SDS011;24840;47.508;19.376;2023-06-26T14:43:20;7.38;;;6.20;;
39094;SDS011;24840;47.508;19.376;2023-06-26T14:45:46;6.63;;;5.85;;
39094;SDS011;24840;47.508;19.376;2023-06-26T14:48:12;6.40;;;5.75;;
39094;SDS011;24840;47.508;19.376;2023-06-26T14:50:38;6.30;;;5.80;;
39094;SDS011;24840;47.508;19.376;2023-06-26T14:53:03;6.22;;;5.72;;
39094;SDS011;24840;47.508;19.376;2023-06-26T14:55:29;6.28;;;5.78;;
39094;SDS011;24840;47.508;19.376;2023-06-26T14:57:55;6.25;;;5.75;;